Time;durP1;ratioP1;P1;durP2;ratioP2;P2;SDS_P1;SDS_P2;PMS_P1;PMS_P2;Temp;Humidity;BMP_temperature;BMP_pressure;BME280_temperature;BME280_humidity;BME280_pressure;Samples;Min_cycle;Max_cycle;Signal;HPM_P1;HPM_P2
2023/12/09 00:01:26;;;;;;;10.77;4.00;;;;;;;;;;5017232;28;20112;-77
2023/12/09 00:03:52;;;;;;;10.90;3.40;;;;;;;;;;5018805;28;20115;-77
2023/12/09 00:06:24;;;;;;;11.40;4.70;;;;;;;;;;5009390;28;20391;-77
2023/12/09 00:08:52;;;;;;;15.23;4.30;;;;;;;;;;5016625;28;20029;-77
2023/12/09 00:11:20;;;;;;;9.03;3.33;;;;;;;;;;5021257;28;20026;-77
2023/12/09 00:13:51;;;;;;;8.47;3.77;;;;;;;;;;5012983;28;20025;-79
2023/12/09 00:16:20;;;;;;;9.10;4.00;;;;;;;;;;5020748;28;20025;-77
2023/12/09 00:18:45;;;;;;;12.27;4.13;;;;;;;;;;5022137;28;20037;-78
2023/12/09 00:21:14;;;;;;;12.60;3.80;;;;;;;;;;5021471;28;20025;-78
2023/12/09 00:23:40;;;;;;;14.17;3.90;;;;;;;;;;5018003;28;20030;-77
2023/12/09 00:26:06;;;;;;;15.40;3.53;;;;;;;;;;5017541;28;20497;-77
2023/12/09 00:28:32;;;;;;;9.93;3.17;;;;;;;;;;5020644;28;20021;-77
2023/12/09 00:30:58;;;;;;;13.93;4.13;;;;;;;;;;5036731;28;20034;-78
2023/12/09 00:33:26;;;;;;;15.13;3.53;;;;;;;;;;5014955;28;20040;-77
2023/12/09 00:35:52;;;;;;;13.70;3.97;;;;;;;;;;5019310;28;20029;-78
2023/12/09 00:38:18;;;;;;;12.70;3.03;;;;;;;;;;5021001;28;20040;-78
2023/12/09 00:40:44;;;;;;;8.90;3.13;;;;;;;;;;5015657;28;20041;-76
2023/12/09 00:43:10;;;;;;;15.20;4.23;;;;;;;;;;5020856;28;20033;-78
2023/12/09 00:45:36;;;;;;;15.50;4.03;;;;;;;;;;5020719;28;20099;-77
2023/12/09 00:48:02;;;;;;;15.37;3.00;;;;;;;;;;5035357;28;20048;-77
2023/12/09 00:50:28;;;;;;;13.10;3.10;;;;;;;;;;5017365;28;20422;-78
2023/12/09 00:52:54;;;;;;;9.43;2.73;;;;;;;;;;5017098;28;20036;-78
2023/12/09 00:55:22;;;;;;;8.57;2.40;;;;;;;;;;5017643;28;20029;-77
2023/12/09 00:57:48;;;;;;;10.13;2.20;;;;;;;;;;5017841;28;20113;-76
2023/12/09 01:00:15;;;;;;;11.13;3.47;;;;;;;;;;5013145;28;20105;-77
2023/12/09 01:02:41;;;;;;;10.50;3.33;;;;;;;;;;5018866;28;20083;-78
2023/12/09 01:05:07;;;;;;;13.17;3.67;;;;;;;;;;5017553;28;20021;-78
2023/12/09 01:07:33;;;;;;;11.43;3.27;;;;;;;;;;5017461;28;20033;-78
2023/12/09 01:09:59;;;;;;;9.10;3.13;;;;;;;;;;5032039;28;20029;-78
2023/12/09 01:12:25;;;;;;;10.40;3.03;;;;;;;;;;5014281;28;20401;-77
2023/12/09 01:14:51;;;;;;;13.80;3.57;;;;;;;;;;5017154;28;20079;-78
2023/12/09 01:17:17;;;;;;;10.43;2.67;;;;;;;;;;5018540;28;20029;-77
2023/12/09 01:19:45;;;;;;;8.17;2.77;;;;;;;;;;5018100;28;20036;-78
2023/12/09 01:22:11;;;;;;;11.97;2.17;;;;;;;;;;5033889;28;20100;-78
2023/12/09 01:24:37;;;;;;;7.30;2.40;;;;;;;;;;5016896;28;20108;-78
2023/12/09 01:27:03;;;;;;;11.37;2.30;;;;;;;;;;5013688;28;20394;-78
2023/12/09 01:29:29;;;;;;;10.63;2.53;;;;;;;;;;5017101;28;20068;-78
2023/12/09 01:31:55;;;;;;;12.17;2.63;;;;;;;;;;5016908;28;20025;-78
2023/12/09 01:34:21;;;;;;;12.33;2.83;;;;;;;;;;5014196;28;20036;-78
2023/12/09 01:36:49;;;;;;;11.80;3.40;;;;;;;;;;5016380;28;20500;-78
2023/12/09 01:39:18;;;;;;;14.40;3.00;;;;;;;;;;5032378;28;20998;-77
2023/12/09 01:41:44;;;;;;;14.03;2.83;;;;;;;;;;5033321;28;20030;-78
2023/12/09 01:44:10;;;;;;;8.27;2.67;;;;;;;;;;5014698;28;21590;-78
2023/12/09 01:46:36;;;;;;;10.83;2.47;;;;;;;;;;5015533;28;20029;-77
2023/12/09 01:49:02;;;;;;;14.83;2.87;;;;;;;;;;5015816;28;20094;-78
2023/12/09 01:51:31;;;;;;;18.13;3.07;;;;;;;;;;5016060;28;20355;-78
2023/12/09 01:53:58;;;;;;;9.50;2.97;;;;;;;;;;5020189;28;20124;-78
2023/12/09 01:56:24;;;;;;;12.87;3.17;;;;;;;;;;5014790;28;20370;-78
2023/12/09 01:58:50;;;;;;;12.00;2.73;;;;;;;;;;5017441;28;20033;-78
2023/12/09 02:01:16;;;;;;;13.57;3.00;;;;;;;;;;5033200;28;20045;-77
2023/12/09 02:03:42;;;;;;;13.53;3.00;;;;;;;;;;5016023;28;20123;-77
2023/12/09 02:06:09;;;;;;;14.07;3.57;;;;;;;;;;5017093;28;20104;-78
2023/12/09 02:08:36;;;;;;;14.77;4.67;;;;;;;;;;5016204;28;20155;-78
2023/12/09 02:11:20;;;;;;;10.53;2.57;;;;;;;;;;5015601;28;20068;-78
2023/12/09 02:13:55;;;;;;;12.13;2.90;;;;;;;;;;5015421;28;20021;-77
2023/12/09 02:16:24;;;;;;;11.77;3.73;;;;;;;;;;5015997;28;20037;-78
2023/12/09 02:18:51;;;;;;;14.70;3.70;;;;;;;;;;5033150;28;20107;-77
2023/12/09 02:21:17;;;;;;;17.47;5.07;;;;;;;;;;5015050;28;20442;-78
2023/12/09 02:23:43;;;;;;;19.43;4.50;;;;;;;;;;5032371;28;20036;-78
2023/12/09 02:26:14;;;;;;;9.30;3.33;;;;;;;;;;5014994;28;20037;-78
2023/12/09 02:28:43;;;;;;;13.43;4.07;;;;;;;;;;5032306;28;20037;-78
2023/12/09 02:31:09;;;;;;;13.53;4.13;;;;;;;;;;5015464;28;20035;-78
2023/12/09 02:33:35;;;;;;;13.30;3.63;;;;;;;;;;5015690;28;20445;-77
2023/12/09 02:36:02;;;;;;;12.93;4.27;;;;;;;;;;5015854;28;20031;-78
2023/12/09 02:38:28;;;;;;;14.30;3.53;;;;;;;;;;5014369;28;20033;-77
2023/12/09 02:40:55;;;;;;;15.97;3.00;;;;;;;;;;5032406;28;21713;-78
2023/12/09 02:43:21;;;;;;;13.40;3.20;;;;;;;;;;5014337;28;20120;-78
2023/12/09 02:45:47;;;;;;;11.77;4.20;;;;;;;;;;5015132;28;20093;-78
2023/12/09 02:48:15;;;;;;;18.63;3.43;;;;;;;;;;5012858;28;20017;-78
2023/12/09 02:50:41;;;;;;;14.33;3.00;;;;;;;;;;5023414;28;20030;-78
2023/12/09 02:53:07;;;;;;;14.00;3.87;;;;;;;;;;5015232;28;20037;-78
2023/12/09 02:55:33;;;;;;;14.67;3.57;;;;;;;;;;5011279;28;20030;-78
2023/12/09 02:57:59;;;;;;;15.57;4.17;;;;;;;;;;5014774;28;20044;-78
2023/12/09 03:00:25;;;;;;;10.93;3.10;;;;;;;;;;5032887;28;20033;-78
2023/12/09 03:02:51;;;;;;;11.63;3.53;;;;;;;;;;5015034;28;20398;-78
2023/12/09 03:05:17;;;;;;;8.50;3.17;;;;;;;;;;5014861;28;20091;-77
2023/12/09 03:07:43;;;;;;;12.43;3.47;;;;;;;;;;5014573;28;20059;-78
2023/12/09 03:10:11;;;;;;;9.40;3.00;;;;;;;;;;5013524;28;20454;-77
2023/12/09 03:12:37;;;;;;;15.80;3.77;;;;;;;;;;5033017;28;20122;-78
2023/12/09 03:15:05;;;;;;;16.27;4.43;;;;;;;;;;5011383;28;20029;-78
2023/12/09 03:17:31;;;;;;;10.97;2.90;;;;;;;;;;5012351;28;20469;-77
2023/12/09 03:20:00;;;;;;;14.43;3.60;;;;;;;;;;5010428;28;20111;-78
2023/12/09 03:22:26;;;;;;;14.60;3.00;;;;;;;;;;5008794;28;20120;-78
2023/12/09 03:24:51;;;;;;;12.70;2.83;;;;;;;;;;5027441;28;20126;-78
2023/12/09 03:27:17;;;;;;;14.87;3.03;;;;;;;;;;5015132;28;20029;-78
2023/12/09 03:29:43;;;;;;;8.90;2.60;;;;;;;;;;5034190;28;20022;-78
2023/12/09 03:32:09;;;;;;;17.60;3.60;;;;;;;;;;5013605;28;20030;-77
2023/12/09 03:34:35;;;;;;;14.67;3.30;;;;;;;;;;5030846;28;20100;-78
2023/12/09 03:37:01;;;;;;;13.30;3.70;;;;;;;;;;5014377;28;20030;-77
2023/12/09 03:39:27;;;;;;;16.00;3.80;;;;;;;;;;5014704;28;20076;-77
2023/12/09 03:41:53;;;;;;;13.00;3.53;;;;;;;;;;5008552;28;20443;-78
2023/12/09 03:44:19;;;;;;;15.50;4.13;;;;;;;;;;5027361;28;20030;-77
2023/12/09 03:46:45;;;;;;;11.80;2.90;;;;;;;;;;5029112;28;20044;-78
2023/12/09 03:49:11;;;;;;;13.47;3.77;;;;;;;;;;5014603;28;20124;-78
2023/12/09 03:51:39;;;;;;;11.47;3.70;;;;;;;;;;5017044;28;20428;-77
2023/12/09 03:54:05;;;;;;;21.10;3.90;;;;;;;;;;5018100;28;20840;-77
2023/12/09 03:56:31;;;;;;;13.17;4.23;;;;;;;;;;5020500;28;20037;-78
2023/12/09 03:58:57;;;;;;;15.90;4.97;;;;;;;;;;5018622;28;20025;-78
2023/12/09 04:01:24;;;;;;;15.20;4.57;;;;;;;;;;5020814;28;20156;-77
2023/12/09 04:03:50;;;;;;;16.73;4.80;;;;;;;;;;5017551;28;20451;-78
2023/12/09 04:06:17;;;;;;;13.20;3.67;;;;;;;;;;5014185;28;20057;-78
2023/12/09 04:08:43;;;;;;;13.33;4.13;;;;;;;;;;5035712;28;20018;-78
2023/12/09 04:11:09;;;;;;;17.03;4.27;;;;;;;;;;5017479;28;20361;-76
2023/12/09 04:13:38;;;;;;;16.47;4.23;;;;;;;;;;5017119;28;20506;-78
2023/12/09 04:16:04;;;;;;;11.47;3.77;;;;;;;;;;5014097;28;20029;-78
2023/12/09 04:18:30;;;;;;;13.53;4.87;;;;;;;;;;5011390;28;20116;-77
2023/12/09 04:20:56;;;;;;;12.87;4.20;;;;;;;;;;5012824;28;20137;-78
2023/12/09 04:23:22;;;;;;;12.23;3.97;;;;;;;;;;5013708;28;20068;-78
2023/12/09 04:25:51;;;;;;;14.47;3.50;;;;;;;;;;5013486;28;20033;-78
2023/12/09 04:28:17;;;;;;;12.60;4.43;;;;;;;;;;5015057;28;21820;-77
2023/12/09 04:30:43;;;;;;;12.33;4.13;;;;;;;;;;5017875;28;20025;-78
2023/12/09 04:33:09;;;;;;;14.60;4.53;;;;;;;;;;5017679;28;20028;-78
2023/12/09 04:35:35;;;;;;;13.80;4.30;;;;;;;;;;5012501;28;20849;-77
2023/12/09 04:38:01;;;;;;;11.23;4.37;;;;;;;;;;5017471;28;20041;-78
2023/12/09 04:40:27;;;;;;;13.70;4.37;;;;;;;;;;5031242;28;20029;-78
2023/12/09 04:42:53;;;;;;;15.70;4.80;;;;;;;;;;5018020;28;20086;-77
2023/12/09 04:45:19;;;;;;;12.80;4.37;;;;;;;;;;5019673;28;20510;-78
2023/12/09 04:47:45;;;;;;;17.10;4.77;;;;;;;;;;5018110;28;20017;-78
2023/12/09 04:50:11;;;;;;;12.10;5.17;;;;;;;;;;5019495;28;20167;-77
2023/12/09 04:52:37;;;;;;;13.00;5.33;;;;;;;;;;5019199;28;20188;-77
2023/12/09 04:55:03;;;;;;;14.87;4.07;;;;;;;;;;5018911;28;20025;-78
2023/12/09 04:57:30;;;;;;;8.67;4.47;;;;;;;;;;5011156;28;20152;-78
2023/12/09 04:59:56;;;;;;;13.23;5.10;;;;;;;;;;5019500;28;20036;-78
2023/12/09 05:02:22;;;;;;;17.60;5.60;;;;;;;;;;5015119;28;20021;-78
2023/12/09 05:04:48;;;;;;;15.93;6.07;;;;;;;;;;5013608;28;20036;-77
2023/12/09 05:07:14;;;;;;;15.50;4.87;;;;;;;;;;5011459;28;20029;-77
2023/12/09 05:09:40;;;;;;;18.77;5.47;;;;;;;;;;5005825;28;20531;-78
2023/12/09 05:12:06;;;;;;;24.33;6.70;;;;;;;;;;5017780;28;20026;-78
2023/12/09 05:14:32;;;;;;;13.33;5.90;;;;;;;;;;5012683;28;20053;-78
2023/12/09 05:17:00;;;;;;;11.13;4.93;;;;;;;;;;5007839;28;20075;-77
2023/12/09 05:19:26;;;;;;;16.07;5.30;;;;;;;;;;5016333;28;20033;-78
2023/12/09 05:21:54;;;;;;;15.43;6.10;;;;;;;;;;5019842;28;20472;-78
2023/12/09 05:24:20;;;;;;;19.87;6.33;;;;;;;;;;5018059;28;20068;-77
2023/12/09 05:26:47;;;;;;;13.03;5.93;;;;;;;;;;5021088;28;20116;-78
2023/12/09 05:29:13;;;;;;;15.43;6.00;;;;;;;;;;5017555;28;20017;-78
2023/12/09 05:31:41;;;;;;;16.37;7.17;;;;;;;;;;5019215;28;20056;-77
2023/12/09 05:34:07;;;;;;;15.23;6.60;;;;;;;;;;5017420;28;20021;-77
2023/12/09 05:36:33;;;;;;;19.33;6.77;;;;;;;;;;5038025;28;20057;-77
2023/12/09 05:38:59;;;;;;;17.33;7.30;;;;;;;;;;5010834;28;20030;-78
2023/12/09 05:41:25;;;;;;;17.17;6.03;;;;;;;;;;5016732;28;20037;-77
2023/12/09 05:43:51;;;;;;;19.47;6.57;;;;;;;;;;5016487;28;20120;-78
2023/12/09 05:46:21;;;;;;;19.53;7.10;;;;;;;;;;5018396;28;20184;-78
2023/12/09 05:48:48;;;;;;;21.77;6.40;;;;;;;;;;5014544;28;20036;-78
2023/12/09 05:51:14;;;;;;;17.47;6.70;;;;;;;;;;5018329;28;20434;-78
2023/12/09 05:53:43;;;;;;;17.30;7.37;;;;;;;;;;5018814;28;20025;-78
2023/12/09 05:56:11;;;;;;;11.90;6.03;;;;;;;;;;5018238;28;20088;-78
2023/12/09 05:58:38;;;;;;;17.00;6.37;;;;;;;;;;5022202;28;20116;-77
2023/12/09 06:01:04;;;;;;;13.80;5.83;;;;;;;;;;5018621;28;20040;-77
2023/12/09 06:03:30;;;;;;;19.17;6.53;;;;;;;;;;5019103;28;20425;-78
2023/12/09 06:05:57;;;;;;;15.87;6.23;;;;;;;;;;5022140;28;20037;-78
2023/12/09 06:08:23;;;;;;;14.67;6.00;;;;;;;;;;5011522;28;20033;-78
2023/12/09 06:10:49;;;;;;;14.70;6.07;;;;;;;;;;5011718;28;20029;-78
2023/12/09 06:13:15;;;;;;;13.77;6.13;;;;;;;;;;5017784;28;20057;-77
2023/12/09 06:15:41;;;;;;;14.63;7.00;;;;;;;;;;5013252;28;20064;-77
2023/12/09 06:18:08;;;;;;;11.50;6.07;;;;;;;;;;5030678;28;20072;-77
2023/12/09 06:20:34;;;;;;;13.13;6.43;;;;;;;;;;5008205;28;20157;-78
2023/12/09 06:23:00;;;;;;;15.10;6.57;;;;;;;;;;5032650;28;20109;-78
2023/12/09 06:25:26;;;;;;;13.40;6.37;;;;;;;;;;5012038;28;20045;-78
2023/12/09 06:27:53;;;;;;;10.37;5.87;;;;;;;;;;5008042;28;20025;-77
2023/12/09 06:30:21;;;;;;;16.50;6.17;;;;;;;;;;5013390;28;20578;-78
2023/12/09 06:32:47;;;;;;;12.80;5.90;;;;;;;;;;5016118;28;20025;-78
2023/12/09 06:35:13;;;;;;;12.80;6.23;;;;;;;;;;5015749;28;20382;-77
2023/12/09 06:37:39;;;;;;;10.50;5.20;;;;;;;;;;5011958;28;20175;-78
2023/12/09 06:40:05;;;;;;;10.37;5.33;;;;;;;;;;5015372;28;20025;-78
2023/12/09 06:42:32;;;;;;;16.93;6.40;;;;;;;;;;5029157;28;20335;-78
2023/12/09 06:44:58;;;;;;;14.80;6.27;;;;;;;;;;5012028;28;20037;-78
2023/12/09 06:47:24;;;;;;;12.63;5.97;;;;;;;;;;5015764;28;20025;-79
2023/12/09 06:49:51;;;;;;;11.63;5.83;;;;;;;;;;5008074;28;20851;-78
2023/12/09 06:52:16;;;;;;;15.57;6.27;;;;;;;;;;5015704;28;20135;-78
2023/12/09 06:54:45;;;;;;;12.20;5.63;;;;;;;;;;5029063;28;20454;-78
2023/12/09 06:57:12;;;;;;;12.07;6.60;;;;;;;;;;5014624;28;20076;-78
2023/12/09 06:59:38;;;;;;;14.60;6.27;;;;;;;;;;5014648;28;20418;-79
2023/12/09 07:02:05;;;;;;;10.33;5.50;;;;;;;;;;5031960;28;20105;-78
2023/12/09 07:04:33;;;;;;;13.77;6.60;;;;;;;;;;5032334;28;20029;-78
2023/12/09 07:07:02;;;;;;;22.63;6.37;;;;;;;;;;5014600;28;20029;-78
2023/12/09 07:09:28;;;;;;;15.37;7.07;;;;;;;;;;5015480;28;20415;-78
2023/12/09 07:11:55;;;;;;;13.30;6.13;;;;;;;;;;5015586;28;20378;-78
2023/12/09 07:14:20;;;;;;;10.53;6.00;;;;;;;;;;5015333;28;20022;-79
2023/12/09 07:16:47;;;;;;;23.87;7.20;;;;;;;;;;5030991;28;20029;-78
2023/12/09 07:19:12;;;;;;;18.13;6.27;;;;;;;;;;5015349;28;20029;-77
2023/12/09 07:21:41;;;;;;;14.20;7.47;;;;;;;;;;5015176;28;20386;-78
2023/12/09 07:24:07;;;;;;;13.37;6.43;;;;;;;;;;5015536;28;20930;-78
2023/12/09 07:26:33;;;;;;;12.90;6.13;;;;;;;;;;5033780;28;20065;-79
2023/12/09 07:29:03;;;;;;;13.43;6.03;;;;;;;;;;5036668;28;20074;-78
2023/12/09 07:31:29;;;;;;;17.53;6.10;;;;;;;;;;5020639;28;20398;-78
2023/12/09 07:33:55;;;;;;;15.23;6.33;;;;;;;;;;5018909;28;20021;-78
2023/12/09 07:36:21;;;;;;;14.23;6.20;;;;;;;;;;5019304;28;20557;-78
2023/12/09 07:38:47;;;;;;;15.67;5.27;;;;;;;;;;5018607;28;20124;-78
2023/12/09 07:41:14;;;;;;;9.83;5.07;;;;;;;;;;5035292;28;20033;-78
2023/12/09 07:43:40;;;;;;;9.67;5.97;;;;;;;;;;5018857;28;20064;-78
2023/12/09 07:46:06;;;;;;;19.33;6.40;;;;;;;;;;5016717;28;20061;-78
2023/12/09 07:48:32;;;;;;;11.70;5.60;;;;;;;;;;5018425;28;20017;-78
2023/12/09 07:50:58;;;;;;;13.47;6.33;;;;;;;;;;5015707;28;21818;-78
2023/12/09 07:53:24;;;;;;;10.97;5.60;;;;;;;;;;5019883;28;20108;-78
2023/12/09 07:55:50;;;;;;;12.80;5.20;;;;;;;;;;5019086;28;20117;-77
2023/12/09 07:58:16;;;;;;;14.30;5.83;;;;;;;;;;5019249;28;20026;-78
2023/12/09 08:00:42;;;;;;;21.30;6.17;;;;;;;;;;5017456;28;20450;-78
2023/12/09 08:03:08;;;;;;;12.80;6.30;;;;;;;;;;5018804;28;20104;-78
2023/12/09 08:05:34;;;;;;;12.80;6.40;;;;;;;;;;5020028;28;20044;-78
2023/12/09 08:08:01;;;;;;;16.37;7.10;;;;;;;;;;5016465;28;20175;-78
2023/12/09 08:10:29;;;;;;;11.30;6.20;;;;;;;;;;5018258;28;20066;-78
2023/12/09 08:12:56;;;;;;;22.97;7.63;;;;;;;;;;5018473;28;20105;-78
2023/12/09 08:15:22;;;;;;;13.83;5.53;;;;;;;;;;5017860;28;20033;-78
2023/12/09 08:17:50;;;;;;;13.47;6.30;;;;;;;;;;5018374;28;20021;-77
2023/12/09 08:20:16;;;;;;;15.33;6.07;;;;;;;;;;5016449;28;20048;-79
2023/12/09 08:22:44;;;;;;;12.63;6.27;;;;;;;;;;5017527;28;20029;-78
2023/12/09 08:25:10;;;;;;;18.33;6.50;;;;;;;;;;5016604;28;20025;-79
2023/12/09 08:27:39;;;;;;;14.00;6.27;;;;;;;;;;5017757;28;20037;-78
2023/12/09 08:30:10;;;;;;;20.13;5.77;;;;;;;;;;5017150;28;20021;-78
2023/12/09 08:32:36;;;;;;;15.97;6.17;;;;;;;;;;5017641;28;20128;-78
2023/12/09 08:35:02;;;;;;;12.53;5.37;;;;;;;;;;5018014;28;20104;-78
2023/12/09 08:37:28;;;;;;;17.20;6.20;;;;;;;;;;5034088;28;21691;-78
2023/12/09 08:39:56;;;;;;;16.73;5.40;;;;;;;;;;5017115;28;20025;-78
2023/12/09 08:42:22;;;;;;;12.83;5.30;;;;;;;;;;5016300;28;20022;-78
2023/12/09 08:44:48;;;;;;;14.70;4.70;;;;;;;;;;5015516;28;20035;-78
2023/12/09 08:47:18;;;;;;;22.00;6.33;;;;;;;;;;5014934;28;20117;-78
2023/12/09 08:49:43;;;;;;;14.63;5.30;;;;;;;;;;5008869;28;20049;-78
2023/12/09 08:52:10;;;;;;;12.13;4.47;;;;;;;;;;5029153;28;20065;-78
2023/12/09 08:54:36;;;;;;;21.53;6.00;;;;;;;;;;5016849;28;20025;-78
2023/12/09 08:57:02;;;;;;;11.60;4.07;;;;;;;;;;5015739;28;20087;-78
2023/12/09 08:59:28;;;;;;;14.07;4.17;;;;;;;;;;5015783;28;20037;-78
2023/12/09 09:01:54;;;;;;;11.80;4.90;;;;;;;;;;5017465;28;20041;-78
2023/12/09 09:04:22;;;;;;;12.53;4.80;;;;;;;;;;5017576;28;20036;-78
2023/12/09 09:06:50;;;;;;;9.93;4.33;;;;;;;;;;5016530;28;20117;-78
2023/12/09 09:09:16;;;;;;;13.53;4.30;;;;;;;;;;5016625;28;20060;-79
2023/12/09 09:11:42;;;;;;;25.80;4.43;;;;;;;;;;5016192;28;20049;-78
2023/12/09 09:14:08;;;;;;;9.73;4.10;;;;;;;;;;5017033;28;20036;-78
2023/12/09 09:16:35;;;;;;;13.27;4.13;;;;;;;;;;5016152;28;20029;-78
2023/12/09 09:19:01;;;;;;;12.77;3.97;;;;;;;;;;5015919;28;20446;-79
2023/12/09 09:21:27;;;;;;;10.67;4.23;;;;;;;;;;5031930;28;20040;-78
2023/12/09 09:23:53;;;;;;;17.13;3.67;;;;;;;;;;5016971;28;20033;-79
2023/12/09 09:26:19;;;;;;;15.40;3.97;;;;;;;;;;5033246;28;20026;-78
2023/12/09 09:28:45;;;;;;;11.43;3.60;;;;;;;;;;5009837;28;20037;-79
2023/12/09 09:31:11;;;;;;;12.93;4.33;;;;;;;;;;5015994;28;20029;-78
2023/12/09 09:33:37;;;;;;;19.77;4.97;;;;;;;;;;5010801;28;20037;-79
2023/12/09 09:36:03;;;;;;;9.60;3.37;;;;;;;;;;5011729;28;20129;-78
2023/12/09 09:38:29;;;;;;;10.87;4.00;;;;;;;;;;5032244;28;20032;-79
2023/12/09 09:40:56;;;;;;;13.93;3.73;;;;;;;;;;5031167;28;20029;-78
2023/12/09 09:43:24;;;;;;;16.50;4.17;;;;;;;;;;5028898;28;20068;-78
2023/12/09 09:45:53;;;;;;;14.47;3.70;;;;;;;;;;5014868;28;20117;-78
2023/12/09 09:48:23;;;;;;;14.37;4.47;;;;;;;;;;5009359;28;20034;-78
2023/12/09 09:50:52;;;;;;;14.23;3.57;;;;;;;;;;5016939;28;20167;-79
2023/12/09 09:53:27;;;;;;;13.77;3.23;;;;;;;;;;5012064;28;20030;-78
2023/12/09 09:55:54;;;;;;;14.03;3.57;;;;;;;;;;5032159;28;20038;-78
2023/12/09 09:58:20;;;;;;;14.43;3.07;;;;;;;;;;5015037;28;20056;-78
2023/12/09 10:00:46;;;;;;;12.40;2.90;;;;;;;;;;5011268;28;20040;-78
2023/12/09 10:03:12;;;;;;;12.57;3.53;;;;;;;;;;5032613;28;20033;-78
2023/12/09 10:05:38;;;;;;;14.07;3.20;;;;;;;;;;5016108;28;20363;-78
2023/12/09 10:08:05;;;;;;;16.43;3.07;;;;;;;;;;5019149;28;20091;-78
2023/12/09 10:10:33;;;;;;;15.77;4.13;;;;;;;;;;5024997;28;20034;-79
2023/12/09 10:13:01;;;;;;;20.87;4.10;;;;;;;;;;5012478;28;20025;-78
2023/12/09 10:15:27;;;;;;;12.17;2.83;;;;;;;;;;5015847;28;20148;-79
2023/12/09 10:17:58;;;;;;;10.17;3.40;;;;;;;;;;5010577;28;20061;-78
2023/12/09 10:20:24;;;;;;;14.00;2.80;;;;;;;;;;5015138;28;20526;-78
2023/12/09 10:22:50;;;;;;;10.87;3.67;;;;;;;;;;5028908;28;20120;-79
2023/12/09 10:25:22;;;;;;;19.47;3.30;;;;;;;;;;5011756;28;20063;-79
2023/12/09 10:27:48;;;;;;;15.20;2.63;;;;;;;;;;5007402;28;20172;-79
2023/12/09 10:30:15;;;;;;;10.87;2.50;;;;;;;;;;5013915;28;20057;-78
2023/12/09 10:32:41;;;;;;;13.33;3.10;;;;;;;;;;5026357;28;20172;-78
2023/12/09 10:35:09;;;;;;;20.77;3.90;;;;;;;;;;5015215;28;20100;-79
2023/12/09 10:37:35;;;;;;;14.70;3.33;;;;;;;;;;5027044;28;20377;-78
2023/12/09 10:40:03;;;;;;;16.47;3.63;;;;;;;;;;5008615;28;20430;-79
2023/12/09 10:42:30;;;;;;;12.97;2.80;;;;;;;;;;5011436;28;20033;-78
2023/12/09 10:44:56;;;;;;;14.60;2.60;;;;;;;;;;5017817;28;20069;-78
2023/12/09 10:47:22;;;;;;;13.37;4.07;;;;;;;;;;5034617;28;20026;-79
2023/12/09 10:49:50;;;;;;;19.50;3.30;;;;;;;;;;5017318;28;20518;-78
2023/12/09 10:52:16;;;;;;;16.97;3.87;;;;;;;;;;5017465;28;20030;-79
2023/12/09 10:54:42;;;;;;;11.73;2.80;;;;;;;;;;5014505;28;20021;-78
2023/12/09 10:57:08;;;;;;;10.03;3.47;;;;;;;;;;5013740;28;20040;-79
2023/12/09 10:59:34;;;;;;;12.70;3.40;;;;;;;;;;5010816;28;20030;-78
2023/12/09 11:02:01;;;;;;;19.03;3.60;;;;;;;;;;5013219;28;20036;-79
2023/12/09 11:04:27;;;;;;;14.43;3.60;;;;;;;;;;5019822;28;20098;-78
2023/12/09 11:06:56;;;;;;;20.17;4.10;;;;;;;;;;5017261;28;20030;-78
2023/12/09 11:09:22;;;;;;;11.33;3.67;;;;;;;;;;5011422;28;20510;-78
2023/12/09 11:11:48;;;;;;;17.07;4.40;;;;;;;;;;5017005;28;20076;-78
2023/12/09 11:14:15;;;;;;;10.00;3.80;;;;;;;;;;5014717;28;20025;-78
2023/12/09 11:16:42;;;;;;;11.10;3.03;;;;;;;;;;5015193;28;20037;-78
2023/12/09 11:19:14;;;;;;;17.50;3.50;;;;;;;;;;5011476;28;20040;-79
2023/12/09 11:21:43;;;;;;;13.87;3.33;;;;;;;;;;5033360;28;20443;-79
2023/12/09 11:24:09;;;;;;;14.03;3.47;;;;;;;;;;5017019;28;20378;-78
2023/12/09 11:26:36;;;;;;;14.57;2.53;;;;;;;;;;5016871;28;20461;-78
2023/12/09 11:29:12;;;;;;;13.10;3.43;;;;;;;;;;5017289;28;20030;-78
2023/12/09 11:31:38;;;;;;;13.60;2.60;;;;;;;;;;5016438;28;20017;-79
2023/12/09 11:34:08;;;;;;;11.93;2.37;;;;;;;;;;5014681;28;20036;-78
2023/12/09 11:36:36;;;;;;;12.60;2.50;;;;;;;;;;5030612;28;20458;-78
2023/12/09 11:39:06;;;;;;;10.50;2.00;;;;;;;;;;5029021;28;20029;-78
2023/12/09 11:41:34;;;;;;;13.17;2.57;;;;;;;;;;5012335;28;20029;-78
2023/12/09 11:44:02;;;;;;;16.07;2.10;;;;;;;;;;5017102;28;20033;-78
2023/12/09 11:46:30;;;;;;;10.63;2.67;;;;;;;;;;5015435;28;20054;-78
2023/12/09 11:48:57;;;;;;;10.43;1.63;;;;;;;;;;5010681;28;20037;-78
2023/12/09 11:51:25;;;;;;;13.23;2.13;;;;;;;;;;5016782;28;20064;-78
2023/12/09 11:53:55;;;;;;;12.07;2.60;;;;;;;;;;5016791;28;20022;-78
2023/12/09 11:56:21;;;;;;;14.57;2.90;;;;;;;;;;5016933;28;20049;-78
2023/12/09 11:58:47;;;;;;;9.27;1.90;;;;;;;;;;5018497;28;20033;-77
2023/12/09 12:01:13;;;;;;;13.67;2.43;;;;;;;;;;5010746;28;20088;-78
2023/12/09 12:03:41;;;;;;;17.13;2.27;;;;;;;;;;5016340;28;20057;-78
2023/12/09 12:06:07;;;;;;;12.03;2.23;;;;;;;;;;5006778;28;20056;-77
2023/12/09 12:08:34;;;;;;;5.30;1.60;;;;;;;;;;5016030;28;20029;-77
2023/12/09 12:11:00;;;;;;;14.17;2.87;;;;;;;;;;5012551;28;20025;-78
2023/12/09 12:13:26;;;;;;;10.93;2.27;;;;;;;;;;5020329;28;20472;-78
2023/12/09 12:15:54;;;;;;;12.37;2.33;;;;;;;;;;5015133;28;20033;-78
2023/12/09 12:18:20;;;;;;;10.40;2.03;;;;;;;;;;5018782;28;20060;-78
2023/12/09 12:20:49;;;;;;;5.27;1.87;;;;;;;;;;5012167;28;20465;-78
2023/12/09 12:23:15;;;;;;;7.20;1.67;;;;;;;;;;5031027;28;20034;-78
2023/12/09 12:25:41;;;;;;;9.13;1.90;;;;;;;;;;5033102;28;20529;-78
2023/12/09 12:28:08;;;;;;;8.10;1.40;;;;;;;;;;5017348;28;20120;-77
2023/12/09 12:30:36;;;;;;;8.77;1.60;;;;;;;;;;5016398;28;20039;-78
2023/12/09 12:33:15;;;;;;;;;;;;;;;;;;;;;
2023/12/09 12:35:41;;;;;;;11.20;1.50;;;;;;;;;;5033853;28;20037;-79
2023/12/09 12:38:07;;;;;;;5.53;1.40;;;;;;;;;;5033333;28;21004;-78
2023/12/09 12:40:35;;;;;;;7.67;1.60;;;;;;;;;;5035704;28;20033;-78
2023/12/09 12:43:04;;;;;;;4.33;1.73;;;;;;;;;;5017512;28;20071;-78
2023/12/09 12:45:32;;;;;;;3.50;1.10;;;;;;;;;;5016296;28;20033;-76
2023/12/09 12:47:58;;;;;;;11.37;1.93;;;;;;;;;;5013407;28;20026;-77
2023/12/09 12:50:27;;;;;;;8.03;1.97;;;;;;;;;;5015347;28;20036;-78
2023/12/09 12:52:53;;;;;;;11.27;1.87;;;;;;;;;;5016209;28;20076;-77
2023/12/09 12:55:19;;;;;;;6.80;2.00;;;;;;;;;;5033417;28;20040;-78
2023/12/09 12:57:47;;;;;;;5.67;1.77;;;;;;;;;;5014653;28;20060;-77
2023/12/09 13:00:14;;;;;;;8.23;2.00;;;;;;;;;;5016478;28;20030;-77
2023/12/09 13:02:40;;;;;;;6.63;2.30;;;;;;;;;;5016080;28;20112;-77
2023/12/09 13:05:06;;;;;;;6.13;1.70;;;;;;;;;;5015158;28;20041;-78
2023/12/09 13:07:35;;;;;;;6.13;1.57;;;;;;;;;;5014384;28;20036;-78
2023/12/09 13:10:03;;;;;;;7.20;1.70;;;;;;;;;;5014739;28;20033;-79
2023/12/09 13:12:29;;;;;;;9.37;1.77;;;;;;;;;;5015623;28;21007;-78
2023/12/09 13:14:56;;;;;;;8.33;1.60;;;;;;;;;;5032529;28;20895;-76
2023/12/09 13:17:22;;;;;;;7.40;1.60;;;;;;;;;;5013622;28;20410;-77
2023/12/09 13:19:48;;;;;;;6.87;1.50;;;;;;;;;;5012932;28;20517;-78
2023/12/09 13:22:14;;;;;;;4.63;1.40;;;;;;;;;;5015857;28;20048;-79
2023/12/09 13:24:40;;;;;;;9.00;1.93;;;;;;;;;;5015535;28;20097;-77
2023/12/09 13:27:06;;;;;;;2.70;1.17;;;;;;;;;;5015114;28;20048;-78
2023/12/09 13:29:32;;;;;;;5.93;1.80;;;;;;;;;;5029676;28;20040;-77
2023/12/09 13:32:00;;;;;;;3.80;1.80;;;;;;;;;;5030937;28;20033;-78
2023/12/09 13:34:26;;;;;;;6.63;1.83;;;;;;;;;;5014065;28;20433;-77
2023/12/09 13:36:53;;;;;;;5.90;2.20;;;;;;;;;;5015581;28;20056;-77
2023/12/09 13:39:25;;;;;;;4.93;1.93;;;;;;;;;;5030388;28;20053;-79
2023/12/09 13:41:51;;;;;;;5.65;2.05;;;;;;;;;;5013569;28;20033;-78
2023/12/09 13:44:17;;;;;;;5.97;1.93;;;;;;;;;;5012420;28;20116;-78
2023/12/09 13:46:44;;;;;;;6.20;2.00;;;;;;;;;;5015149;28;20120;-77
2023/12/09 13:49:10;;;;;;;5.30;1.77;;;;;;;;;;5013892;28;20021;-78
2023/12/09 13:51:36;;;;;;;10.10;2.77;;;;;;;;;;5013833;28;20026;-77
2023/12/09 13:54:02;;;;;;;7.40;2.70;;;;;;;;;;5032338;28;20079;-78
2023/12/09 13:56:28;;;;;;;9.73;2.63;;;;;;;;;;5013756;28;20442;-77
2023/12/09 13:58:54;;;;;;;9.20;2.93;;;;;;;;;;5030458;28;20021;-78
2023/12/09 14:01:24;;;;;;;4.77;2.40;;;;;;;;;;5011989;28;20072;-78
2023/12/09 14:03:50;;;;;;;9.03;2.40;;;;;;;;;;5013974;28;20029;-79
2023/12/09 14:06:16;;;;;;;10.83;2.87;;;;;;;;;;5017043;28;20262;-79
2023/12/09 14:08:42;;;;;;;8.27;3.00;;;;;;;;;;5016136;28;20116;-78
2023/12/09 14:11:09;;;;;;;6.73;3.10;;;;;;;;;;5017191;28;20034;-78
2023/12/09 14:13:35;;;;;;;9.00;3.20;;;;;;;;;;5015586;28;20044;-78
2023/12/09 14:16:02;;;;;;;9.83;3.67;;;;;;;;;;5032541;28;20033;-78
2023/12/09 14:18:28;;;;;;;10.97;3.37;;;;;;;;;;5015608;28;20034;-77
2023/12/09 14:20:54;;;;;;;11.30;4.50;;;;;;;;;;5011769;28;20029;-79
2023/12/09 14:23:22;;;;;;;13.73;3.60;;;;;;;;;;5014281;28;20076;-78
2023/12/09 14:25:50;;;;;;;10.20;3.73;;;;;;;;;;5032444;28;20048;-78
2023/12/09 14:28:16;;;;;;;6.83;3.60;;;;;;;;;;5016613;28;20025;-78
2023/12/09 14:30:42;;;;;;;5.60;2.53;;;;;;;;;;5032225;28;20120;-78